Time;durP1;ratioP1;P1;durP2;ratioP2;P2;SDS_P1;SDS_P2;PMS_P1;PMS_P2;Temp;Humidity;BMP_temperature;BMP_pressure;BME280_temperature;BME280_humidity;BME280_pressure;Samples;Min_cycle;Max_cycle;Signal;HPM_P1;HPM_P2
2024/02/05 00:01:28;;;;;;;6.30;4.43;;;21.00;53.90;;;;;;5089709;28;20201;-69
2024/02/05 00:03:53;;;;;;;7.17;4.33;;;21.00;53.90;;;;;;5092730;28;20829;-70
2024/02/05 00:06:19;;;;;;;5.43;3.77;;;21.00;53.90;;;;;;5093377;28;20539;-70
2024/02/05 00:08:45;;;;;;;6.10;5.03;;;21.00;53.90;;;;;;5093376;28;20253;-70
2024/02/05 00:11:10;;;;;;;7.20;4.87;;;21.00;53.90;;;;;;5093325;28;20763;-70
2024/02/05 00:13:36;;;;;;;5.90;4.63;;;21.00;53.90;;;;;;5093293;28;20260;-70
2024/02/05 00:16:01;;;;;;;6.00;3.80;;;21.00;53.90;;;;;;5093247;28;20190;-70
2024/02/05 00:18:27;;;;;;;6.73;4.53;;;21.00;53.90;;;;;;5093241;28;20212;-70
2024/02/05 00:20:53;;;;;;;6.57;5.00;;;21.00;53.90;;;;;;5092913;28;20202;-70
2024/02/05 00:23:19;;;;;;;4.70;3.90;;;21.00;53.90;;;;;;5093146;28;20533;-69
2024/02/05 00:25:45;;;;;;;6.17;4.20;;;21.00;53.90;;;;;;5093101;28;20166;-69
2024/02/05 00:28:11;;;;;;;5.30;4.13;;;21.00;53.90;;;;;;5092985;28;20404;-70
2024/02/05 00:30:36;;;;;;;5.90;4.40;;;21.00;53.90;;;;;;5093207;28;20230;-70
2024/02/05 00:33:03;;;;;;;5.00;3.87;;;21.00;53.90;;;;;;5092976;28;20416;-70
2024/02/05 00:35:28;;;;;;;5.00;4.00;;;21.00;53.90;;;;;;5092852;28;20188;-70
2024/02/05 00:37:54;;;;;;;5.80;4.10;;;21.00;53.90;;;;;;5092871;28;20807;-68
2024/02/05 00:40:20;;;;;;;6.20;4.10;;;21.00;53.90;;;;;;5092681;28;20262;-70
2024/02/05 00:42:46;;;;;;;6.30;4.33;;;20.90;53.90;;;;;;5092743;28;20173;-71
2024/02/05 00:45:12;;;;;;;6.33;4.53;;;21.00;53.90;;;;;;5092774;28;20423;-70
2024/02/05 00:47:37;;;;;;;6.10;4.37;;;20.90;53.90;;;;;;5092950;28;20185;-70
2024/02/05 00:50:05;;;;;;;6.30;4.00;;;20.90;53.80;;;;;;5092867;28;20210;-69
2024/02/05 00:52:31;;;;;;;5.93;3.50;;;20.90;53.80;;;;;;5092554;28;20593;-69
2024/02/05 00:54:57;;;;;;;6.60;3.77;;;20.90;53.80;;;;;;5092834;28;20423;-70
2024/02/05 00:57:26;;;;;;;6.00;4.43;;;20.90;53.80;;;;;;5092486;28;20419;-69
2024/02/05 00:59:52;;;;;;;5.20;3.43;;;20.90;53.90;;;;;;5092497;28;20174;-70
2024/02/05 01:02:18;;;;;;;6.10;4.47;;;20.90;53.80;;;;;;5092197;28;20500;-70
2024/02/05 01:04:44;;;;;;;5.90;4.10;;;20.90;53.90;;;;;;5092398;28;20429;-69
2024/02/05 01:07:10;;;;;;;5.20;4.00;;;20.90;53.90;;;;;;5092334;28;20495;-70
2024/02/05 01:09:35;;;;;;;4.80;3.67;;;20.90;53.80;;;;;;5074032;28;20439;-70
2024/02/05 01:12:03;;;;;;;5.00;4.03;;;20.90;53.90;;;;;;5073979;28;20258;-69
2024/02/05 01:14:28;;;;;;;6.13;4.80;;;20.90;53.90;;;;;;5092093;28;20181;-69
2024/02/05 01:16:54;;;;;;;6.07;3.67;;;20.90;53.90;;;;;;5092055;28;21006;-70
2024/02/05 01:19:19;;;;;;;4.73;3.80;;;20.90;53.90;;;;;;5092056;28;20540;-70
2024/02/05 01:21:45;;;;;;;4.47;3.60;;;20.90;53.90;;;;;;5091903;28;20208;-70
2024/02/05 01:24:11;;;;;;;4.87;3.43;;;20.90;53.90;;;;;;5091981;28;20223;-69
2024/02/05 01:26:36;;;;;;;4.77;3.63;;;20.90;53.90;;;;;;5091965;28;20180;-71
2024/02/05 01:29:02;;;;;;;4.87;3.30;;;20.90;53.90;;;;;;5073919;28;20174;-69
2024/02/05 01:31:28;;;;;;;4.93;4.40;;;20.90;53.90;;;;;;5091758;28;20201;-69
2024/02/05 01:33:53;;;;;;;4.70;3.60;;;20.90;53.90;;;;;;5091814;28;21060;-70
2024/02/05 01:36:19;;;;;;;4.53;3.70;;;20.90;53.90;;;;;;5091772;28;20181;-71
2024/02/05 01:38:44;;;;;;;5.87;4.17;;;20.90;53.90;;;;;;5091707;28;20186;-70
2024/02/05 01:41:10;;;;;;;6.77;4.07;;;20.90;53.90;;;;;;5091493;28;20206;-68
2024/02/05 01:43:36;;;;;;;4.50;3.30;;;20.90;53.90;;;;;;5091746;28;20695;-70
2024/02/05 01:46:02;;;;;;;4.20;3.37;;;20.90;53.90;;;;;;5091658;28;20168;-67
2024/02/05 01:48:33;;;;;;;4.83;3.30;;;20.90;53.90;;;;;;5091475;28;20775;-69
2024/02/05 01:50:58;;;;;;;5.20;3.80;;;20.90;53.90;;;;;;5091376;28;20220;-70
2024/02/05 01:53:25;;;;;;;5.50;3.43;;;20.90;53.90;;;;;;5091513;28;20443;-69
2024/02/05 01:55:52;;;;;;;4.60;3.83;;;20.90;53.90;;;;;;5091369;28;20192;-70
2024/02/05 01:58:21;;;;;;;4.83;3.70;;;20.90;53.90;;;;;;5091286;28;20415;-70
2024/02/05 02:00:47;;;;;;;6.07;3.73;;;20.90;53.90;;;;;;5091168;28;20452;-70
2024/02/05 02:03:14;;;;;;;6.00;3.97;;;20.90;53.90;;;;;;5091407;28;20414;-69
2024/02/05 02:05:40;;;;;;;4.30;3.60;;;20.90;53.90;;;;;;5091134;28;20408;-69
2024/02/05 02:08:10;;;;;;;6.30;3.77;;;20.90;53.90;;;;;;5091085;28;20419;-70
2024/02/05 02:10:37;;;;;;;4.20;3.43;;;20.90;53.90;;;;;;5091084;28;20432;-70
2024/02/05 02:13:03;;;;;;;5.00;3.47;;;20.90;54.00;;;;;;5091280;28;20423;-69
2024/02/05 02:15:29;;;;;;;4.47;4.07;;;20.90;53.90;;;;;;5090944;28;20428;-70
2024/02/05 02:17:59;;;;;;;3.70;3.10;;;20.90;53.90;;;;;;5091357;28;20169;-70
2024/02/05 02:20:28;;;;;;;4.50;3.40;;;20.90;53.90;;;;;;5090988;28;20423;-70
2024/02/05 02:22:57;;;;;;;5.30;3.57;;;20.90;53.90;;;;;;5091114;28;20441;-70
2024/02/05 02:25:24;;;;;;;4.40;3.43;;;20.90;53.90;;;;;;5090619;28;20918;-69
2024/02/05 02:27:50;;;;;;;5.07;3.53;;;20.90;53.90;;;;;;5091041;28;20439;-70
2024/02/05 02:30:18;;;;;;;5.07;3.80;;;20.90;53.90;;;;;;5090736;28;20273;-70
2024/02/05 02:33:01;;;;;;;4.83;3.00;;;20.90;53.90;;;;;;5090806;28;20256;-69
2024/02/05 02:35:45;;;;;;;4.93;3.20;;;20.90;53.90;;;;;;5090616;28;20388;-70
2024/02/05 02:38:16;;;;;;;5.67;4.47;;;20.90;53.90;;;;;;5090678;28;20396;-70
2024/02/05 02:40:45;;;;;;;4.10;3.43;;;20.90;53.90;;;;;;5090557;28;20969;-69
2024/02/05 02:43:12;;;;;;;4.47;3.40;;;20.80;53.80;;;;;;5090555;28;20466;-70
2024/02/05 02:45:39;;;;;;;3.83;3.40;;;20.80;53.80;;;;;;5090568;28;20430;-70
2024/02/05 02:48:05;;;;;;;4.97;3.43;;;20.80;53.80;;;;;;5090490;28;20412;-70
2024/02/05 02:50:30;;;;;;;4.23;3.20;;;20.80;53.90;;;;;;5090667;28;20442;-69
2024/02/05 02:52:56;;;;;;;5.27;3.87;;;20.80;53.80;;;;;;5090400;28;20416;-70
2024/02/05 02:55:22;;;;;;;4.00;3.23;;;20.80;53.90;;;;;;5090329;28;20553;-69
2024/02/05 02:57:47;;;;;;;3.53;2.80;;;20.80;53.90;;;;;;5090423;28;20174;-69
2024/02/05 03:00:14;;;;;;;3.77;3.30;;;20.80;53.80;;;;;;5090265;28;20550;-69
2024/02/05 03:02:40;;;;;;;3.40;2.70;;;20.80;53.80;;;;;;5090581;28;20245;-69
2024/02/05 03:05:06;;;;;;;5.53;3.63;;;20.80;53.90;;;;;;5090339;28;20474;-69
2024/02/05 03:07:34;;;;;;;4.00;2.80;;;20.80;53.90;;;;;;5090266;28;20172;-70
2024/02/05 03:10:01;;;;;;;4.70;3.80;;;20.80;53.90;;;;;;5090210;28;21314;-68
2024/02/05 03:12:27;;;;;;;4.43;3.43;;;20.80;53.90;;;;;;5090209;28;20430;-69
2024/02/05 03:14:52;;;;;;;3.30;2.60;;;20.80;53.90;;;;;;5090490;28;20427;-69
2024/02/05 03:17:18;;;;;;;4.67;3.37;;;20.80;53.90;;;;;;5090067;28;20740;-69
2024/02/05 03:19:43;;;;;;;6.83;3.63;;;20.80;53.90;;;;;;5090141;28;20175;-70
2024/02/05 03:22:11;;;;;;;5.17;3.23;;;20.80;53.90;;;;;;5089890;28;20624;-70
2024/02/05 03:24:36;;;;;;;3.93;2.90;;;20.80;53.90;;;;;;5090119;28;20173;-70
2024/02/05 03:27:02;;;;;;;3.93;2.83;;;20.80;53.80;;;;;;5090038;28;20408;-70
2024/02/05 03:29:27;;;;;;;4.67;3.27;;;20.80;53.80;;;;;;5090076;28;20203;-70
2024/02/05 03:31:53;;;;;;;4.73;2.77;;;20.80;53.80;;;;;;5089968;28;20198;-70
2024/02/05 03:34:19;;;;;;;4.13;3.07;;;20.80;53.80;;;;;;5090085;28;20268;-69
2024/02/05 03:36:45;;;;;;;3.80;2.83;;;20.80;53.90;;;;;;5071864;28;20178;-69
2024/02/05 03:39:10;;;;;;;4.80;3.20;;;20.80;53.80;;;;;;5093416;28;20412;-69
2024/02/05 03:41:36;;;;;;;3.77;2.60;;;20.80;53.80;;;;;;5093838;28;20643;-69
2024/02/05 03:44:02;;;;;;;5.07;3.33;;;20.80;53.80;;;;;;5093977;28;20252;-70
2024/02/05 03:46:27;;;;;;;4.80;3.00;;;20.80;53.80;;;;;;5093929;28;20664;-69
2024/02/05 03:48:54;;;;;;;4.93;3.63;;;20.80;53.80;;;;;;5094080;28;20403;-70
2024/02/05 03:51:21;;;;;;;3.63;2.70;;;20.80;53.80;;;;;;5093735;28;20198;-69
2024/02/05 03:53:48;;;;;;;4.00;3.30;;;20.80;53.90;;;;;;5093711;28;20415;-69
2024/02/05 03:56:16;;;;;;;4.73;3.20;;;20.80;53.80;;;;;;5093793;28;20411;-69
2024/02/05 03:58:42;;;;;;;6.03;3.27;;;20.80;53.80;;;;;;5093610;28;20424;-70
2024/02/05 04:01:07;;;;;;;3.40;2.70;;;20.80;53.80;;;;;;5093433;28;20467;-69
2024/02/05 04:03:33;;;;;;;4.77;3.33;;;20.80;53.80;;;;;;5093828;28;20173;-70
2024/02/05 04:05:59;;;;;;;4.17;3.17;;;20.80;53.80;;;;;;5093490;28;20173;-70
2024/02/05 04:08:24;;;;;;;4.90;2.80;;;20.80;53.80;;;;;;5093455;28;20547;-69
2024/02/05 04:10:51;;;;;;;3.53;2.90;;;20.80;53.80;;;;;;5093340;28;20197;-69
2024/02/05 04:13:17;;;;;;;4.53;3.27;;;20.80;53.80;;;;;;5093343;28;20177;-70
2024/02/05 04:15:43;;;;;;;4.00;2.83;;;20.80;53.80;;;;;;5093220;28;20431;-70
2024/02/05 04:18:09;;;;;;;5.40;2.80;;;20.80;53.80;;;;;;5093247;28;20177;-70
2024/02/05 04:20:35;;;;;;;3.33;2.77;;;20.80;53.80;;;;;;5093113;28;20881;-70
2024/02/05 04:23:01;;;;;;;4.73;3.37;;;20.80;53.90;;;;;;5093233;28;20439;-70
2024/02/05 04:25:26;;;;;;;4.27;2.73;;;20.80;53.80;;;;;;5093160;28;20655;-70
2024/02/05 04:27:52;;;;;;;3.23;2.60;;;20.80;53.90;;;;;;5093106;28;20263;-69
2024/02/05 04:30:26;;;;;;;4.33;3.00;;;20.80;53.80;;;;;;5093092;28;20652;-69
2024/02/05 04:32:52;;;;;;;3.40;2.40;;;20.80;53.90;;;;;;5093156;28;21183;-70
2024/02/05 04:35:18;;;;;;;4.23;2.87;;;20.80;53.90;;;;;;5092903;28;20404;-70
2024/02/05 04:37:43;;;;;;;4.97;3.07;;;20.80;53.90;;;;;;5092945;28;20181;-70
2024/02/05 04:40:09;;;;;;;3.80;2.50;;;20.80;53.90;;;;;;5092775;28;20174;-68
2024/02/05 04:42:35;;;;;;;3.67;2.70;;;20.80;53.90;;;;;;5093164;28;20229;-70
2024/02/05 04:45:01;;;;;;;3.33;2.70;;;20.80;53.90;;;;;;5092797;28;20987;-69
2024/02/05 04:47:26;;;;;;;3.93;2.83;;;20.80;53.90;;;;;;5092807;28;20475;-70
2024/02/05 04:49:52;;;;;;;4.33;3.00;;;20.80;53.80;;;;;;5092315;28;20178;-69
2024/02/05 04:52:18;;;;;;;2.67;2.40;;;20.80;53.90;;;;;;5092830;28;20288;-69
2024/02/05 04:54:44;;;;;;;3.27;2.23;;;20.80;53.90;;;;;;5092636;28;20832;-68
2024/02/05 04:57:09;;;;;;;3.43;2.50;;;20.80;53.90;;;;;;5092557;28;20181;-69
2024/02/05 04:59:35;;;;;;;3.00;2.50;;;20.80;53.80;;;;;;5092529;28;20180;-69
2024/02/05 05:02:01;;;;;;;3.80;2.97;;;20.80;53.80;;;;;;5092391;28;20636;-69
2024/02/05 05:04:27;;;;;;;3.50;2.53;;;20.80;53.90;;;;;;5092426;28;20418;-69
2024/02/05 05:06:52;;;;;;;3.40;2.80;;;20.80;53.80;;;;;;5092133;28;20177;-69
2024/02/05 05:09:18;;;;;;;3.10;2.70;;;20.80;53.80;;;;;;5092271;28;20173;-70
2024/02/05 05:11:43;;;;;;;3.10;2.30;;;20.80;53.90;;;;;;5092276;28;20204;-70
2024/02/05 05:14:09;;;;;;;3.97;2.67;;;20.80;53.90;;;;;;5074270;28;20180;-69
2024/02/05 05:16:34;;;;;;;3.30;2.80;;;20.80;53.90;;;;;;5092132;28;20193;-70
2024/02/05 05:19:03;;;;;;;3.90;2.67;;;20.80;53.90;;;;;;5092191;28;20268;-68
2024/02/05 05:21:29;;;;;;;2.77;2.37;;;20.80;53.90;;;;;;5073565;28;20286;-70
2024/02/05 05:23:54;;;;;;;4.17;2.77;;;20.80;53.90;;;;;;5091813;28;20457;-69
2024/02/05 05:26:23;;;;;;;3.63;2.60;;;20.80;53.90;;;;;;5091988;28;20174;-70
2024/02/05 05:28:52;;;;;;;2.93;2.40;;;20.80;53.80;;;;;;5073635;28;20185;-68
2024/02/05 05:31:18;;;;;;;4.33;3.47;;;20.80;53.90;;;;;;5092058;28;20423;-68
2024/02/05 05:33:44;;;;;;;3.13;2.47;;;20.80;53.90;;;;;;5091787;28;20420;-69
2024/02/05 05:36:10;;;;;;;3.27;2.10;;;20.90;53.90;;;;;;5092133;28;20186;-69
2024/02/05 05:38:36;;;;;;;2.70;2.30;;;20.90;53.90;;;;;;5091723;28;20480;-70
2024/02/05 05:41:03;;;;;;;4.03;2.63;;;20.90;53.90;;;;;;5073272;28;20209;-71
2024/02/05 05:43:29;;;;;;;3.47;2.70;;;20.80;53.80;;;;;;5091922;28;20172;-68
2024/02/05 05:45:55;;;;;;;5.33;2.70;;;20.90;53.90;;;;;;5091999;28;20404;-70
2024/02/05 05:48:21;;;;;;;3.67;2.50;;;20.90;53.90;;;;;;5091456;28;20411;-69
2024/02/05 05:50:47;;;;;;;2.93;2.43;;;20.90;53.90;;;;;;5091561;28;20432;-69
2024/02/05 05:53:13;;;;;;;2.60;2.40;;;20.90;53.90;;;;;;5091828;28;20169;-70
2024/02/05 05:55:38;;;;;;;2.90;2.50;;;20.90;53.90;;;;;;5091413;28;20960;-71
2024/02/05 05:58:04;;;;;;;3.80;2.00;;;20.90;53.90;;;;;;5091431;28;20268;-69
2024/02/05 06:00:30;;;;;;;4.70;3.30;;;20.90;53.90;;;;;;5070689;28;20196;-70
2024/02/05 06:02:56;;;;;;;3.83;2.63;;;20.90;53.90;;;;;;5071034;28;20178;-68
2024/02/05 06:05:22;;;;;;;3.20;2.83;;;20.90;53.90;;;;;;5070968;28;20166;-68
2024/02/05 06:07:48;;;;;;;3.90;2.07;;;20.90;53.90;;;;;;5052732;28;20458;-69
2024/02/05 06:10:13;;;;;;;5.00;2.93;;;20.90;53.90;;;;;;5070700;28;20715;-69
2024/02/05 06:12:44;;;;;;;4.33;3.00;;;20.90;53.90;;;;;;5070651;28;20447;-69
2024/02/05 06:15:12;;;;;;;2.50;1.87;;;20.90;53.90;;;;;;5070641;28;20232;-69
2024/02/05 06:17:38;;;;;;;3.30;1.93;;;20.90;53.90;;;;;;5070728;28;20393;-69
2024/02/05 06:20:05;;;;;;;3.00;2.13;;;20.90;53.90;;;;;;5070566;28;20739;-69
2024/02/05 06:22:34;;;;;;;2.77;2.40;;;20.90;54.00;;;;;;5070593;28;20201;-69
2024/02/05 06:25:00;;;;;;;3.50;2.13;;;20.90;53.90;;;;;;5070570;28;20429;-69
2024/02/05 06:27:25;;;;;;;3.40;2.50;;;20.90;53.90;;;;;;5070725;28;20935;-69
2024/02/05 06:29:51;;;;;;;3.23;2.20;;;21.00;53.90;;;;;;5070335;28;20175;-67
2024/02/05 06:32:16;;;;;;;4.20;2.73;;;20.90;53.80;;;;;;5070359;28;20693;-69
2024/02/05 06:34:44;;;;;;;3.90;2.20;;;20.90;53.80;;;;;;5070393;28;20201;-68
2024/02/05 06:37:10;;;;;;;3.03;1.97;;;20.90;53.80;;;;;;5070343;28;20182;-69
2024/02/05 06:39:35;;;;;;;2.50;1.90;;;21.00;53.80;;;;;;5070343;28;20408;-70
2024/02/05 06:42:01;;;;;;;3.07;2.30;;;21.00;53.80;;;;;;5070232;28;20224;-68
2024/02/05 06:44:27;;;;;;;2.63;1.83;;;21.00;53.80;;;;;;5070244;28;20175;-69
2024/02/05 06:46:53;;;;;;;2.90;2.10;;;21.00;53.80;;;;;;5070264;28;20181;-69
2024/02/05 06:49:18;;;;;;;2.90;2.20;;;21.10;53.90;;;;;;5070192;28;20643;-68
2024/02/05 06:51:44;;;;;;;3.13;2.23;;;21.00;53.80;;;;;;5070130;28;20511;-68
2024/02/05 06:54:10;;;;;;;2.40;2.10;;;21.10;53.80;;;;;;5070093;28;20559;-69
2024/02/05 06:56:35;;;;;;;1.90;1.70;;;21.10;53.80;;;;;;5070103;28;20412;-69
2024/02/05 06:59:01;;;;;;;2.27;1.80;;;21.10;53.80;;;;;;5070090;28;20177;-69
2024/02/05 07:01:27;;;;;;;2.80;2.20;;;21.10;53.80;;;;;;5069957;28;20202;-70
2024/02/05 07:03:52;;;;;;;3.00;2.10;;;21.10;53.80;;;;;;5070013;28;20209;-69
2024/02/05 07:06:18;;;;;;;2.73;2.03;;;21.10;53.80;;;;;;5070018;28;20162;-69
2024/02/05 07:08:46;;;;;;;3.07;2.40;;;21.10;53.80;;;;;;5069969;28;20585;-68
2024/02/05 07:11:12;;;;;;;2.33;1.90;;;21.10;53.70;;;;;;5069805;28;20194;-68
2024/02/05 07:13:38;;;;;;;2.90;2.13;;;21.10;53.70;;;;;;5070222;28;20942;-69
2024/02/05 07:16:14;;;;;;;1.93;1.70;;;21.10;53.70;;;;;;5069782;28;20428;-67
2024/02/05 07:18:41;;;;;;;3.03;1.80;;;21.10;53.70;;;;;;5070015;28;20483;-69
2024/02/05 07:21:07;;;;;;;2.60;2.40;;;21.10;53.70;;;;;;5069717;28;20978;-69
2024/02/05 07:23:32;;;;;;;3.13;2.37;;;21.20;53.80;;;;;;5069824;28;20411;-69
2024/02/05 07:25:58;;;;;;;3.43;2.20;;;21.20;53.80;;;;;;5069855;28;20166;-69
2024/02/05 07:28:23;;;;;;;3.00;2.17;;;21.20;53.80;;;;;;5052068;28;20224;-70
2024/02/05 07:30:49;;;;;;;2.63;1.63;;;21.20;53.80;;;;;;5069744;28;20194;-68
2024/02/05 07:33:15;;;;;;;2.13;1.73;;;21.20;53.80;;;;;;5069726;28;20170;-69
2024/02/05 07:35:40;;;;;;;3.13;2.30;;;21.20;53.80;;;;;;5070017;28;20174;-68
2024/02/05 07:38:06;;;;;;;2.80;2.27;;;21.20;53.80;;;;;;5069622;28;20278;-70
2024/02/05 07:40:32;;;;;;;3.03;2.37;;;21.20;53.90;;;;;;5069554;28;20213;-68
2024/02/05 07:42:57;;;;;;;2.13;1.73;;;21.20;53.90;;;;;;5069692;28;20175;-69
2024/02/05 07:45:23;;;;;;;3.07;1.63;;;21.20;53.90;;;;;;5069830;28;20166;-69
2024/02/05 07:47:48;;;;;;;2.97;1.90;;;21.20;53.80;;;;;;5069675;28;20170;-68
2024/02/05 07:50:14;;;;;;;3.27;1.97;;;21.20;53.80;;;;;;5069866;28;20178;-69
2024/02/05 07:52:39;;;;;;;2.57;1.97;;;21.20;53.80;;;;;;5051475;28;20244;-69
2024/02/05 07:55:05;;;;;;;3.40;1.80;;;21.20;53.80;;;;;;5069583;28;20170;-69
2024/02/05 07:57:31;;;;;;;3.30;1.73;;;21.20;53.80;;;;;;5069821;28;20570;-69
2024/02/05 07:59:57;;;;;;;2.63;2.17;;;21.20;53.80;;;;;;5069439;28;20301;-68
2024/02/05 08:02:25;;;;;;;2.50;1.60;;;21.20;53.80;;;;;;5069402;28;20285;-69
2024/02/05 08:04:51;;;;;;;3.93;1.87;;;21.20;53.80;;;;;;5069708;28;20435;-70
2024/02/05 08:07:17;;;;;;;2.57;1.90;;;21.20;53.80;;;;;;5069548;28;20413;-69
2024/02/05 08:09:42;;;;;;;2.47;1.73;;;21.20;53.80;;;;;;5069708;28;20412;-68
2024/02/05 08:12:08;;;;;;;3.10;2.03;;;21.20;53.70;;;;;;5069355;28;20194;-69
2024/02/05 08:14:34;;;;;;;2.10;1.73;;;21.20;53.70;;;;;;5069452;28;20660;-69
2024/02/05 08:16:59;;;;;;;2.10;1.90;;;21.20;53.80;;;;;;5069228;28;20540;-68
2024/02/05 08:19:25;;;;;;;2.20;2.00;;;21.20;53.80;;;;;;5069422;28;20175;-69
2024/02/05 08:21:50;;;;;;;2.53;1.77;;;21.20;53.80;;;;;;5069156;28;20217;-69
2024/02/05 08:24:17;;;;;;;2.40;1.87;;;21.20;53.80;;;;;;5071083;28;20201;-69
2024/02/05 08:26:42;;;;;;;2.17;1.83;;;21.20;53.80;;;;;;5073153;28;20232;-69
2024/02/05 08:29:08;;;;;;;2.10;1.47;;;21.30;53.80;;;;;;5072846;28;20401;-69
2024/02/05 08:31:35;;;;;;;1.80;1.70;;;21.20;53.70;;;;;;5072713;28;20186;-69
2024/02/05 08:34:02;;;;;;;2.30;1.63;;;21.20;53.80;;;;;;5072707;28;20174;-69
2024/02/05 08:36:28;;;;;;;2.17;1.50;;;21.30;53.80;;;;;;5072705;28;20840;-69
2024/02/05 08:38:54;;;;;;;1.93;1.50;;;21.30;53.80;;;;;;5072860;28;20417;-67
2024/02/05 08:41:20;;;;;;;2.53;1.53;;;21.30;53.80;;;;;;5072501;28;20841;-69
2024/02/05 08:43:46;;;;;;;2.50;2.10;;;21.30;53.80;;;;;;5072626;28;20589;-69
2024/02/05 08:46:12;;;;;;;1.90;1.60;;;21.30;53.80;;;;;;5072650;28;20401;-70
2024/02/05 08:48:39;;;;;;;2.90;2.07;;;21.30;53.80;;;;;;5072535;28;20219;-69
2024/02/05 08:51:05;;;;;;;2.53;1.67;;;21.30;53.90;;;;;;5072435;28;20922;-69
2024/02/05 08:53:30;;;;;;;4.23;2.03;;;21.30;53.90;;;;;;5072376;28;20507;-69
2024/02/05 08:55:56;;;;;;;2.87;2.20;;;21.30;53.90;;;;;;5072592;28;20339;-69
2024/02/05 08:58:22;;;;;;;2.63;1.63;;;21.30;53.90;;;;;;5072363;28;20175;-69
2024/02/05 09:00:49;;;;;;;3.20;2.33;;;21.30;53.90;;;;;;5072146;28;20435;-69
2024/02/05 09:03:16;;;;;;;2.60;1.60;;;21.30;54.00;;;;;;5072227;28;20543;-69
2024/02/05 09:05:42;;;;;;;2.00;1.73;;;21.30;54.00;;;;;;5072151;28;20405;-70
2024/02/05 09:08:08;;;;;;;2.37;1.93;;;21.30;54.00;;;;;;5072379;28;20772;-69
2024/02/05 09:10:36;;;;;;;4.00;1.70;;;21.30;54.00;;;;;;5072092;28;20969;-68
2024/02/05 09:13:02;;;;;;;2.90;1.67;;;21.30;54.00;;;;;;5072065;28;20175;-69
2024/02/05 09:15:29;;;;;;;3.10;2.00;;;21.30;54.00;;;;;;5071923;28;20436;-68
2024/02/05 09:17:55;;;;;;;2.33;1.70;;;21.30;54.00;;;;;;5071905;28;20946;-66
2024/02/05 09:20:21;;;;;;;1.90;1.60;;;21.30;54.00;;;;;;5053683;28;20428;-69
2024/02/05 09:22:48;;;;;;;2.47;1.83;;;21.30;54.10;;;;;;5071701;28;20460;-69
2024/02/05 09:25:13;;;;;;;4.40;1.77;;;21.30;54.10;;;;;;5071832;28;20420;-67
2024/02/05 09:27:39;;;;;;;2.00;1.77;;;21.30;54.10;;;;;;5071634;28;20400;-69
2024/02/05 09:30:06;;;;;;;2.27;1.40;;;21.20;54.00;;;;;;5071526;28;20177;-69
2024/02/05 09:32:31;;;;;;;2.90;2.10;;;21.30;54.10;;;;;;5071502;28;20249;-68
2024/02/05 09:35:00;;;;;;;2.30;2.10;;;21.30;54.10;;;;;;5070623;28;20516;-69
2024/02/05 09:37:25;;;;;;;2.70;2.00;;;21.30;54.10;;;;;;5071454;28;20163;-70
2024/02/05 09:39:51;;;;;;;2.53;1.80;;;21.20;54.00;;;;;;5071516;28;20413;-69
2024/02/05 09:42:17;;;;;;;1.93;1.30;;;21.20;54.00;;;;;;5053196;28;20229;-67
2024/02/05 09:44:49;;;;;;;2.10;1.63;;;21.20;54.00;;;;;;5071254;28;20625;-69
2024/02/05 09:47:18;;;;;;;2.07;1.70;;;21.20;54.00;;;;;;5071350;28;20170;-69
2024/02/05 09:49:48;;;;;;;3.07;1.83;;;21.20;54.00;;;;;;5071218;28;20507;-67
2024/02/05 09:52:15;;;;;;;3.70;1.87;;;21.20;54.00;;;;;;5071266;28;20428;-68
2024/02/05 09:54:46;;;;;;;2.20;2.00;;;21.20;54.00;;;;;;5071481;28;20447;-68
2024/02/05 09:57:11;;;;;;;2.83;1.80;;;21.20;54.00;;;;;;5071164;28;20393;-68
2024/02/05 09:59:40;;;;;;;4.50;1.70;;;21.20;54.00;;;;;;5071144;28;20409;-69
2024/02/05 10:02:07;;;;;;;2.40;1.70;;;21.30;54.10;;;;;;5071048;28;20210;-70
2024/02/05 10:04:42;;;;;;;2.23;1.70;;;21.20;54.00;;;;;;5071045;28;20802;-69
2024/02/05 10:07:15;;;;;;;3.20;1.97;;;21.20;54.50;;;;;;5070929;28;20403;-69
2024/02/05 10:09:42;;;;;;;2.43;1.50;;;21.30;54.10;;;;;;5070946;28;20425;-70
2024/02/05 10:12:12;;;;;;;3.67;1.80;;;21.20;54.00;;;;;;5070771;28;20497;-68
2024/02/05 10:14:41;;;;;;;2.23;1.83;;;21.20;54.00;;;;;;5052784;28;20412;-68
2024/02/05 10:17:07;;;;;;;2.37;1.57;;;21.30;54.10;;;;;;5052375;28;20439;-69
2024/02/05 10:19:34;;;;;;;2.40;1.70;;;21.30;54.10;;;;;;5052908;28;20876;-69
2024/02/05 10:22:01;;;;;;;1.50;1.30;;;21.30;54.10;;;;;;5070534;28;20292;-69
2024/02/05 10:24:26;;;;;;;2.37;1.57;;;21.30;54.10;;;;;;5070697;28;20498;-69
2024/02/05 10:26:52;;;;;;;3.00;1.90;;;21.30;54.10;;;;;;5070913;28;20432;-69
2024/02/05 10:29:21;;;;;;;2.03;1.80;;;21.30;54.10;;;;;;5070481;28;20722;-69
2024/02/05 10:31:49;;;;;;;5.00;1.80;;;21.30;54.10;;;;;;5070750;28;20717;-69
2024/02/05 10:34:19;;;;;;;2.90;1.43;;;21.30;54.10;;;;;;5070359;28;20405;-69
2024/02/05 10:36:45;;;;;;;2.27;1.60;;;21.30;54.10;;;;;;5070491;28;20419;-69
2024/02/05 10:39:22;;;;;;;2.47;1.80;;;21.30;54.10;;;;;;5052417;28;20825;-69
2024/02/05 10:41:48;;;;;;;2.13;1.83;;;21.30;54.10;;;;;;5070330;28;20847;-69
2024/02/05 10:44:14;;;;;;;2.03;1.53;;;21.30;54.20;;;;;;5070371;28;20416;-69
2024/02/05 10:46:40;;;;;;;2.93;2.23;;;21.30;54.20;;;;;;5052322;28;20417;-69
2024/02/05 10:49:07;;;;;;;3.00;1.90;;;21.30;54.20;;;;;;5070307;28;20500;-69
2024/02/05 10:51:36;;;;;;;3.33;1.60;;;21.30;54.20;;;;;;5070190;28;20187;-69
2024/02/05 10:54:02;;;;;;;1.67;1.40;;;21.30;54.20;;;;;;5070284;28;20412;-68
2024/02/05 10:56:30;;;;;;;2.50;1.63;;;21.30;54.20;;;;;;5070334;28;20413;-69
2024/02/05 10:58:59;;;;;;;1.97;1.57;;;21.30;54.20;;;;;;5070194;28;20440;-68
2024/02/05 11:01:29;;;;;;;2.20;1.43;;;21.30;54.20;;;;;;5070085;28;20452;-69
2024/02/05 11:04:01;;;;;;;2.13;1.40;;;21.30;54.20;;;;;;5070340;28;20393;-69
2024/02/05 11:06:32;;;;;;;1.93;1.33;;;21.30;54.20;;;;;;5070226;28;20420;-70
2024/02/05 11:08:59;;;;;;;1.73;1.40;;;21.30;54.20;;;;;;5070375;28;20393;-68
2024/02/05 11:11:24;;;;;;;1.83;1.57;;;21.20;54.20;;;;;;5070073;28;20420;-69
2024/02/05 11:13:58;;;;;;;1.80;1.50;;;21.20;54.20;;;;;;5070134;28;20405;-68
2024/02/05 11:16:24;;;;;;;2.70;1.73;;;21.20;54.80;;;;;;5070047;28;20204;-69
2024/02/05 11:18:54;;;;;;;2.03;1.60;;;21.20;54.20;;;;;;5070085;28;20416;-69
2024/02/05 11:21:46;;;;;;;2.00;1.47;;;21.20;54.20;;;;;;5070128;28;20509;-69
2024/02/05 11:24:14;;;;;;;3.20;2.30;;;21.20;54.20;;;;;;5070321;28;20423;-70
2024/02/05 11:26:40;;;;;;;3.20;1.60;;;21.20;54.20;;;;;;5069935;28;20405;-69
2024/02/05 11:29:05;;;;;;;2.33;1.47;;;21.20;54.20;;;;;;5070017;28;20458;-69
2024/02/05 11:31:35;;;;;;;1.77;1.57;;;21.20;54.20;;;;;;5069818;28;20543;-69
2024/02/05 11:34:07;;;;;;;2.20;1.50;;;21.20;54.20;;;;;;5069908;28;20170;-69
2024/02/05 11:36:33;;;;;;;1.47;1.10;;;21.20;54.20;;;;;;5069863;28;20405;-69
2024/02/05 11:39:09;;;;;;;1.90;1.27;;;21.20;54.20;;;;;;5069903;28;20495;-69
2024/02/05 11:41:36;;;;;;;1.80;1.40;;;21.20;54.20;;;;;;5069910;28;20862;-68
2024/02/05 11:44:02;;;;;;;2.27;1.60;;;21.20;54.20;;;;;;5069761;28;20408;-70
2024/02/05 11:46:28;;;;;;;2.60;1.70;;;21.20;54.20;;;;;;5069876;28;20495;-68
2024/02/05 11:48:53;;;;;;;2.30;1.40;;;21.20;54.20;;;;;;5069783;28;20551;-68
2024/02/05 11:51:19;;;;;;;2.47;1.63;;;21.20;54.20;;;;;;5069654;28;20190;-69
2024/02/05 11:53:48;;;;;;;2.10;1.30;;;21.20;54.20;;;;;;5069729;28;20312;-69
2024/02/05 11:56:14;;;;;;;1.90;1.30;;;21.20;54.20;;;;;;5069769;28;20175;-68
2024/02/05 11:58:42;;;;;;;2.47;1.67;;;21.20;54.20;;;;;;5070761;28;20415;-70
2024/02/05 12:01:09;;;;;;;1.57;1.40;;;21.20;54.20;;;;;;5055320;28;20221;-68
2024/02/05 12:03:36;;;;;;;2.13;1.30;;;21.20;54.20;;;;;;5073424;28;20416;-68
2024/02/05 12:06:03;;;;;;;1.73;1.33;;;21.20;54.20;;;;;;5073309;28;20404;-69
2024/02/05 12:08:30;;;;;;;1.80;1.67;;;21.20;54.80;;;;;;5073544;28;20408;-69
2024/02/05 12:10:56;;;;;;;1.90;1.57;;;21.20;54.20;;;;;;5073155;28;20424;-69
2024/02/05 12:13:21;;;;;;;2.43;1.80;;;21.20;54.20;;;;;;5073187;28;20431;-69
2024/02/05 12:15:47;;;;;;;2.10;1.20;;;21.20;54.20;;;;;;5073237;28;20432;-69
2024/02/05 12:18:13;;;;;;;1.90;1.43;;;21.30;54.30;;;;;;5055041;28;20171;-68
2024/02/05 12:20:39;;;;;;;2.13;1.80;;;21.20;54.20;;;;;;5072871;28;20186;-69
2024/02/05 12:23:05;;;;;;;1.60;1.50;;;21.20;54.20;;;;;;5073025;28;20462;-69
2024/02/05 12:25:31;;;;;;;1.63;1.40;;;21.20;54.20;;;;;;5054948;28;20179;-68
2024/02/05 12:27:57;;;;;;;2.57;2.00;;;21.20;54.20;;;;;;5072669;28;20789;-70
2024/02/05 12:30:23;;;;;;;1.60;1.40;;;21.30;54.20;;;;;;5072816;28;20473;-69
2024/02/05 12:32:55;;;;;;;4.80;2.00;;;21.30;54.30;;;;;;5072742;28;20403;-68
2024/02/05 12:35:22;;;;;;;3.00;2.07;;;21.30;54.30;;;;;;5072821;28;20206;-69
2024/02/05 12:37:50;;;;;;;3.60;2.80;;;21.30;54.30;;;;;;5072666;28;20499;-68
2024/02/05 12:40:17;;;;;;;4.87;2.60;;;21.30;54.90;;;;;;5072472;28;20479;-69
2024/02/05 12:42:43;;;;;;;5.07;3.23;;;21.30;54.90;;;;;;5054547;28;20464;-69
2024/02/05 12:45:10;;;;;;;4.10;2.80;;;21.30;54.30;;;;;;5072442;28;20408;-68